sensor_id;sensor_type;location;lat;lon;timestamp;P1;P2;P0
70243;PMS7003;57634;51.136;17.024;2023-02-18T00:00:02;0;0;0
70243;PMS7003;57634;51.136;17.024;2023-02-18T00:03:05;0;0;0
70243;PMS7003;57634;51.136;17.024;2023-02-18T00:06:10;0;0;0
70243;PMS7003;57634;51.136;17.024;2023-02-18T00:09:41;0;0;0
70243;PMS7003;57634;51.136;17.024;2023-02-18T00:12:42;0;0;0
70243;PMS7003;57634;51.136;17.024;2023-02-18T00:15:44;0;0;0
70243;PMS7003;57634;51.136;17.024;2023-02-18T00:18:46;0;0;0
70243;PMS7003;57634;51.136;17.024;2023-02-18T00:21:48;0;0;0
70243;PMS7003;57634;51.136;17.024;2023-02-18T00:24:49;0;0;0
70243;PMS7003;57634;51.136;17.024;2023-02-18T00:27:51;2;0;0
70243;PMS7003;57634;51.136;17.024;2023-02-18T00:30:52;0;0;0
70243;PMS7003;57634;51.136;17.024;2023-02-18T00:33:54;0;0;0
70243;PMS7003;57634;51.136;17.024;2023-02-18T00:36:56;0;0;0
70243;PMS7003;57634;51.136;17.024;2023-02-18T00:39:57;0;0;0
70243;PMS7003;57634;51.136;17.024;2023-02-18T00:42:58;0;0;0
70243;PMS7003;57634;51.136;17.024;2023-02-18T00:46:00;0;0;0
70243;PMS7003;57634;51.136;17.024;2023-02-18T00:49:48;0;0;0
70243;PMS7003;57634;51.136;17.024;2023-02-18T00:52:49;0;0;0
70243;PMS7003;57634;51.136;17.024;2023-02-18T00:55:51;0;0;0
70243;PMS7003;57634;51.136;17.024;2023-02-18T00:58:52;0;0;0
70243;PMS7003;57634;51.136;17.024;2023-02-18T01:01:54;0;0;0
70243;PMS7003;57634;51.136;17.024;2023-02-18T01:04:56;0;0;0
70243;PMS7003;57634;51.136;17.024;2023-02-18T01:07:57;0;0;0
70243;PMS7003;57634;51.136;17.024;2023-02-18T01:10:59;0;0;0
70243;PMS7003;57634;51.136;17.024;2023-02-18T01:14:01;0;0;0
70243;PMS7003;57634;51.136;17.024;2023-02-18T01:17:03;0;0;0
70243;PMS7003;57634;51.136;17.024;2023-02-18T01:20:04;0;0;0
70243;PMS7003;57634;51.136;17.024;2023-02-18T01:23:07;0;0;0
70243;PMS7003;57634;51.136;17.024;2023-02-18T01:26:10;0;0;0
70243;PMS7003;57634;51.136;17.024;2023-02-18T01:29:37;0;0;0
70243;PMS7003;57634;51.136;17.024;2023-02-18T01:32:38;0;0;0
70243;PMS7003;57634;51.136;17.024;2023-02-18T01:35:40;0;0;0
70243;PMS7003;57634;51.136;17.024;2023-02-18T01:38:41;0;0;0
70243;PMS7003;57634;51.136;17.024;2023-02-18T01:41:42;0;0;0
70243;PMS7003;57634;51.136;17.024;2023-02-18T01:44:44;0;0;0
70243;PMS7003;57634;51.136;17.024;2023-02-18T01:47:46;0;0;0
70243;PMS7003;57634;51.136;17.024;2023-02-18T01:54:09;0;0;0
70243;PMS7003;57634;51.136;17.024;2023-02-18T01:57:38;0;0;0
70243;PMS7003;57634;51.136;17.024;2023-02-18T02:00:39;0;0;0
70243;PMS7003;57634;51.136;17.024;2023-02-18T02:03:40;0;0;0
70243;PMS7003;57634;51.136;17.024;2023-02-18T02:06:42;0;0;0
70243;PMS7003;57634;51.136;17.024;2023-02-18T02:09:43;0;0;0
70243;PMS7003;57634;51.136;17.024;2023-02-18T02:16:09;0;0;0
70243;PMS7003;57634;51.136;17.024;2023-02-18T02:23:03;0;0;0
70243;PMS7003;57634;51.136;17.024;2023-02-18T02:36:12;0;0;0
70243;PMS7003;57634;51.136;17.024;2023-02-18T02:39:20;0;0;0
70243;PMS7003;57634;51.136;17.024;2023-02-18T02:42:35;0;0;0
70243;PMS7003;57634;51.136;17.024;2023-02-18T02:52:43;0;0;0
70243;PMS7003;57634;51.136;17.024;2023-02-18T02:55:50;0;0;0
70243;PMS7003;57634;51.136;17.024;2023-02-18T03:12:18;0;0;0
70243;PMS7003;57634;51.136;17.024;2023-02-18T03:19:05;0;0;0
70243;PMS7003;57634;51.136;17.024;2023-02-18T03:22:15;0;0;0
70243;PMS7003;57634;51.136;17.024;2023-02-18T03:25:20;0;0;0
70243;PMS7003;57634;51.136;17.024;2023-02-18T03:28:24;0;0;0
70243;PMS7003;57634;51.136;17.024;2023-02-18T03:31:31;0;0;0
70243;PMS7003;57634;51.136;17.024;2023-02-18T03:34:38;0;0;0
70243;PMS7003;57634;51.136;17.024;2023-02-18T03:38:12;0;0;0
70243;PMS7003;57634;51.136;17.024;2023-02-18T03:41:20;0;0;0
70243;PMS7003;57634;51.136;17.024;2023-02-18T03:44:21;0;0;0
70243;PMS7003;57634;51.136;17.024;2023-02-18T03:47:26;0;0;0
70243;PMS7003;57634;51.136;17.024;2023-02-18T03:50:28;0;0;0
70243;PMS7003;57634;51.136;17.024;2023-02-18T03:53:29;0;0;0
70243;PMS7003;57634;51.136;17.024;2023-02-18T03:56:30;0;0;0
70243;PMS7003;57634;51.136;17.024;2023-02-18T03:59:32;0;0;0
70243;PMS7003;57634;51.136;17.024;2023-02-18T04:02:33;0;0;0
70243;PMS7003;57634;51.136;17.024;2023-02-18T04:05:35;0;0;0
70243;PMS7003;57634;51.136;17.024;2023-02-18T04:08:36;0;0;0
70243;PMS7003;57634;51.136;17.024;2023-02-18T04:12:02;0;0;0
70243;PMS7003;57634;51.136;17.024;2023-02-18T04:15:04;0;0;0
70243;PMS7003;57634;51.136;17.024;2023-02-18T04:18:05;0;0;0
70243;PMS7003;57634;51.136;17.024;2023-02-18T04:21:06;0;0;0
70243;PMS7003;57634;51.136;17.024;2023-02-18T04:24:08;0;0;0
70243;PMS7003;57634;51.136;17.024;2023-02-18T04:27:10;0;0;0
70243;PMS7003;57634;51.136;17.024;2023-02-18T04:30:11;0;0;0
70243;PMS7003;57634;51.136;17.024;2023-02-18T04:33:13;0;0;0
70243;PMS7003;57634;51.136;17.024;2023-02-18T04:36:15;0;0;0
70243;PMS7003;57634;51.136;17.024;2023-02-18T04:39:16;0;0;0
70243;PMS7003;57634;51.136;17.024;2023-02-18T04:42:17;0;0;0
70243;PMS7003;57634;51.136;17.024;2023-02-18T04:45:19;0;0;0
70243;PMS7003;57634;51.136;17.024;2023-02-18T04:48:20;0;0;0
70243;PMS7003;57634;51.136;17.024;2023-02-18T04:51:22;0;0;0
70243;PMS7003;57634;51.136;17.024;2023-02-18T04:54:48;0;0;0
70243;PMS7003;57634;51.136;17.024;2023-02-18T04:57:49;0;0;0
70243;PMS7003;57634;51.136;17.024;2023-02-18T05:00:51;0;0;0
70243;PMS7003;57634;51.136;17.024;2023-02-18T05:03:54;0;0;0
70243;PMS7003;57634;51.136;17.024;2023-02-18T05:06:55;0;0;0
70243;PMS7003;57634;51.136;17.024;2023-02-18T05:09:57;0;0;0
70243;PMS7003;57634;51.136;17.024;2023-02-18T05:12:58;0;0;0
70243;PMS7003;57634;51.136;17.024;2023-02-18T05:15:59;0;0;0
70243;PMS7003;57634;51.136;17.024;2023-02-18T05:19:00;0;0;0
70243;PMS7003;57634;51.136;17.024;2023-02-18T05:22:01;0;0;0
70243;PMS7003;57634;51.136;17.024;2023-02-18T05:25:03;0;0;0
70243;PMS7003;57634;51.136;17.024;2023-02-18T05:28:05;1;0;0
70243;PMS7003;57634;51.136;17.024;2023-02-18T05:31:07;0;0;0
70243;PMS7003;57634;51.136;17.024;2023-02-18T05:34:36;0;0;0
70243;PMS7003;57634;51.136;17.024;2023-02-18T05:37:37;0;0;0
70243;PMS7003;57634;51.136;17.024;2023-02-18T05:40:38;0;0;0
70243;PMS7003;57634;51.136;17.024;2023-02-18T05:43:40;0;0;0
70243;PMS7003;57634;51.136;17.024;2023-02-18T05:46:53;0;0;0
70243;PMS7003;57634;51.136;17.024;2023-02-18T05:49:55;0;0;0
70243;PMS7003;57634;51.136;17.024;2023-02-18T05:52:56;0;0;0
70243;PMS7003;57634;51.136;17.024;2023-02-18T05:55:57;0;0;0
70243;PMS7003;57634;51.136;17.024;2023-02-18T05:58:58;0;0;0
70243;PMS7003;57634;51.136;17.024;2023-02-18T06:02:00;0;0;0
70243;PMS7003;57634;51.136;17.024;2023-02-18T06:05:01;0;0;0
70243;PMS7003;57634;51.136;17.024;2023-02-18T06:08:31;1;0;0
70243;PMS7003;57634;51.136;17.024;2023-02-18T06:11:32;12;11;6
70243;PMS7003;57634;51.136;17.024;2023-02-18T06:14:33;21;17;9
70243;PMS7003;57634;51.136;17.024;2023-02-18T06:17:34;17;14;8
70243;PMS7003;57634;51.136;17.024;2023-02-18T06:20:36;21;18;10
70243;PMS7003;57634;51.136;17.024;2023-02-18T06:23:38;10;10;2
70243;PMS7003;57634;51.136;17.024;2023-02-18T06:26:40;12;11;5
70243;PMS7003;57634;51.136;17.024;2023-02-18T06:29:41;0;0;0
70243;PMS7003;57634;51.136;17.024;2023-02-18T06:32:43;0;0;0
70243;PMS7003;57634;51.136;17.024;2023-02-18T06:39:00;0;0;0
70243;PMS7003;57634;51.136;17.024;2023-02-18T06:42:29;0;0;0
70243;PMS7003;57634;51.136;17.024;2023-02-18T06:45:30;0;0;0
70243;PMS7003;57634;51.136;17.024;2023-02-18T06:48:32;0;0;0
70243;PMS7003;57634;51.136;17.024;2023-02-18T06:51:34;1;1;0
70243;PMS7003;57634;51.136;17.024;2023-02-18T06:54:35;1;0;0
70243;PMS7003;57634;51.136;17.024;2023-02-18T06:57:36;0;0;0
70243;PMS7003;57634;51.136;17.024;2023-02-18T07:00:38;0;0;0
70243;PMS7003;57634;51.136;17.024;2023-02-18T07:03:43;0;0;0
70243;PMS7003;57634;51.136;17.024;2023-02-18T07:06:44;0;0;0
70243;PMS7003;57634;51.136;17.024;2023-02-18T07:09:45;0;0;0
70243;PMS7003;57634;51.136;17.024;2023-02-18T07:12:47;0;0;0
70243;PMS7003;57634;51.136;17.024;2023-02-18T07:15:49;2;0;0
70243;PMS7003;57634;51.136;17.024;2023-02-18T07:18:50;0;0;0
70243;PMS7003;57634;51.136;17.024;2023-02-18T07:22:18;2;2;2
70243;PMS7003;57634;51.136;17.024;2023-02-18T07:25:20;0;0;0
70243;PMS7003;57634;51.136;17.024;2023-02-18T07:28:22;0;0;0
70243;PMS7003;57634;51.136;17.024;2023-02-18T07:31:24;0;0;0
70243;PMS7003;57634;51.136;17.024;2023-02-18T07:34:25;0;0;0
70243;PMS7003;57634;51.136;17.024;2023-02-18T07:37:29;2;0;0
70243;PMS7003;57634;51.136;17.024;2023-02-18T07:40:33;0;0;0
70243;PMS7003;57634;51.136;17.024;2023-02-18T07:43:41;0;0;0
70243;PMS7003;57634;51.136;17.024;2023-02-18T07:46:42;0;0;0
70243;PMS7003;57634;51.136;17.024;2023-02-18T07:49:44;0;0;0
70243;PMS7003;57634;51.136;17.024;2023-02-18T07:52:46;0;0;0
70243;PMS7003;57634;51.136;17.024;2023-02-18T07:56:15;0;0;0
70243;PMS7003;57634;51.136;17.024;2023-02-18T07:59:18;0;0;0
70243;PMS7003;57634;51.136;17.024;2023-02-18T08:02:20;0;0;0
70243;PMS7003;57634;51.136;17.024;2023-02-18T08:05:23;0;0;0
70243;PMS7003;57634;51.136;17.024;2023-02-18T08:08:26;0;0;0
70243;PMS7003;57634;51.136;17.024;2023-02-18T08:11:28;0;0;0
70243;PMS7003;57634;51.136;17.024;2023-02-18T08:14:29;0;0;0
70243;PMS7003;57634;51.136;17.024;2023-02-18T08:17:30;0;0;0
70243;PMS7003;57634;51.136;17.024;2023-02-18T08:20:35;0;0;0
70243;PMS7003;57634;51.136;17.024;2023-02-18T08:23:37;0;0;0
70243;PMS7003;57634;51.136;17.024;2023-02-18T08:26:38;0;0;0
70243;PMS7003;57634;51.136;17.024;2023-02-18T08:29:40;1;0;0
70243;PMS7003;57634;51.136;17.024;2023-02-18T08:33:09;0;0;0
70243;PMS7003;57634;51.136;17.024;2023-02-18T08:36:10;0;0;0
70243;PMS7003;57634;51.136;17.024;2023-02-18T08:39:12;0;0;0
70243;PMS7003;57634;51.136;17.024;2023-02-18T08:42:13;0;0;0
70243;PMS7003;57634;51.136;17.024;2023-02-18T08:45:14;0;0;0
70243;PMS7003;57634;51.136;17.024;2023-02-18T08:48:15;0;0;0
70243;PMS7003;57634;51.136;17.024;2023-02-18T08:51:18;0;0;0
70243;PMS7003;57634;51.136;17.024;2023-02-18T08:54:23;0;0;0
70243;PMS7003;57634;51.136;17.024;2023-02-18T08:57:26;0;0;0
70243;PMS7003;57634;51.136;17.024;2023-02-18T09:00:28;2;1;0
70243;PMS7003;57634;51.136;17.024;2023-02-18T09:03:29;1;0;0
70243;PMS7003;57634;51.136;17.024;2023-02-18T09:06:31;0;0;0
70243;PMS7003;57634;51.136;17.024;2023-02-18T09:09:32;1;0;0
70243;PMS7003;57634;51.136;17.024;2023-02-18T09:13:00;0;0;0
70243;PMS7003;57634;51.136;17.024;2023-02-18T09:16:03;0;0;0
70243;PMS7003;57634;51.136;17.024;2023-02-18T09:19:06;0;0;0
70243;PMS7003;57634;51.136;17.024;2023-02-18T09:22:08;0;0;0
70243;PMS7003;57634;51.136;17.024;2023-02-18T09:25:09;0;0;0
70243;PMS7003;57634;51.136;17.024;2023-02-18T09:28:10;0;0;0
70243;PMS7003;57634;51.136;17.024;2023-02-18T09:31:13;0;0;0
70243;PMS7003;57634;51.136;17.024;2023-02-18T09:34:19;0;0;0
70243;PMS7003;57634;51.136;17.024;2023-02-18T09:37:20;0;0;0
70243;PMS7003;57634;51.136;17.024;2023-02-18T09:40:25;0;0;0
70243;PMS7003;57634;51.136;17.024;2023-02-18T09:47:12;0;0;0
70243;PMS7003;57634;51.136;17.024;2023-02-18T09:50:30;1;0;0
70243;PMS7003;57634;51.136;17.024;2023-02-18T09:53:35;0;0;0
70243;PMS7003;57634;51.136;17.024;2023-02-18T09:56:36;1;1;0
70243;PMS7003;57634;51.136;17.024;2023-02-18T09:59:39;0;0;0
70243;PMS7003;57634;51.136;17.024;2023-02-18T10:02:41;0;0;0
70243;PMS7003;57634;51.136;17.024;2023-02-18T10:09:33;4;3;1
70243;PMS7003;57634;51.136;17.024;2023-02-18T10:12:36;1;0;0
70243;PMS7003;57634;51.136;17.024;2023-02-18T10:15:41;1;0;0
70243;PMS7003;57634;51.136;17.024;2023-02-18T10:18:45;2;1;0
70243;PMS7003;57634;51.136;17.024;2023-02-18T10:21:53;0;0;0
70243;PMS7003;57634;51.136;17.024;2023-02-18T10:25:04;0;0;0
70243;PMS7003;57634;51.136;17.024;2023-02-18T10:28:33;11;10;6
70243;PMS7003;57634;51.136;17.024;2023-02-18T10:31:42;9;8;4
70243;PMS7003;57634;51.136;17.024;2023-02-18T10:38:08;0;0;0
70243;PMS7003;57634;51.136;17.024;2023-02-18T10:45:02;1;1;0
70243;PMS7003;57634;51.136;17.024;2023-02-18T10:51:29;1;1;0
70243;PMS7003;57634;51.136;17.024;2023-02-18T11:01:31;1;1;0
70243;PMS7003;57634;51.136;17.024;2023-02-18T11:04:36;1;1;0
70243;PMS7003;57634;51.136;17.024;2023-02-18T11:07:40;2;2;0
70243;PMS7003;57634;51.136;17.024;2023-02-18T11:10:49;2;2;1
70243;PMS7003;57634;51.136;17.024;2023-02-18T11:13:52;3;3;2
70243;PMS7003;57634;51.136;17.024;2023-02-18T11:16:55;9;7;5
70243;PMS7003;57634;51.136;17.024;2023-02-18T11:20:33;6;3;2
70243;PMS7003;57634;51.136;17.024;2023-02-18T11:23:46;3;2;1
70243;PMS7003;57634;51.136;17.024;2023-02-18T11:26:49;2;2;1
70243;PMS7003;57634;51.136;17.024;2023-02-18T11:29:52;3;2;1
70243;PMS7003;57634;51.136;17.024;2023-02-18T11:32:58;3;1;0
70243;PMS7003;57634;51.136;17.024;2023-02-18T11:36:15;1;1;0
70243;PMS7003;57634;51.136;17.024;2023-02-18T11:39:43;1;1;0
70243;PMS7003;57634;51.136;17.024;2023-02-18T11:42:48;0;0;0
70243;PMS7003;57634;51.136;17.024;2023-02-18T11:45:49;1;0;0
70243;PMS7003;57634;51.136;17.024;2023-02-18T11:52:19;0;0;0
70243;PMS7003;57634;51.136;17.024;2023-02-18T11:55:26;0;0;0
70243;PMS7003;57634;51.136;17.024;2023-02-18T11:58:57;1;1;0
70243;PMS7003;57634;51.136;17.024;2023-02-18T12:02:47;1;1;0
70243;PMS7003;57634;51.136;17.024;2023-02-18T12:05:21;0;0;0
70243;PMS7003;57634;51.136;17.024;2023-02-18T12:08:29;1;1;1
70243;PMS7003;57634;51.136;17.024;2023-02-18T12:11:39;3;2;1
70243;PMS7003;57634;51.136;17.024;2023-02-18T12:14:42;1;1;1
70243;PMS7003;57634;51.136;17.024;2023-02-18T12:21:29;1;0;0
70243;PMS7003;57634;51.136;17.024;2023-02-18T12:24:54;0;0;0
70243;PMS7003;57634;51.136;17.024;2023-02-18T12:28:08;0;0;0
70243;PMS7003;57634;51.136;17.024;2023-02-18T12:31:48;0;0;0
70243;PMS7003;57634;51.136;17.024;2023-02-18T12:45:12;2;1;0
70243;PMS7003;57634;51.136;17.024;2023-02-18T12:51:37;2;0;0
70243;PMS7003;57634;51.136;17.024;2023-02-18T13:11:47;3;2;1
70243;PMS7003;57634;51.136;17.024;2023-02-18T13:14:59;1;1;1
70243;PMS7003;57634;51.136;17.024;2023-02-18T13:18:07;5;5;4
70243;PMS7003;57634;51.136;17.024;2023-02-18T13:21:15;3;2;1
70243;PMS7003;57634;51.136;17.024;2023-02-18T13:24:44;6;5;3
70243;PMS7003;57634;51.136;17.024;2023-02-18T13:27:35;5;5;4
70243;PMS7003;57634;51.136;17.024;2023-02-18T13:37:40;5;4;2
70243;PMS7003;57634;51.136;17.024;2023-02-18T13:40:47;2;2;1
70243;PMS7003;57634;51.136;17.024;2023-02-18T13:43:50;7;5;4
70243;PMS7003;57634;51.136;17.024;2023-02-18T13:46:53;5;4;2
70243;PMS7003;57634;51.136;17.024;2023-02-18T13:53:36;5;4;2
70243;PMS7003;57634;51.136;17.024;2023-02-18T13:56:42;3;3;2
70243;PMS7003;57634;51.136;17.024;2023-02-18T14:03:18;3;3;2
70243;PMS7003;57634;51.136;17.024;2023-02-18T14:06:42;6;4;2
70243;PMS7003;57634;51.136;17.024;2023-02-18T14:09:54;4;4;2
70243;PMS7003;57634;51.136;17.024;2023-02-18T14:13:01;3;3;2
70243;PMS7003;57634;51.136;17.024;2023-02-18T14:16:09;2;2;1
70243;PMS7003;57634;51.136;17.024;2023-02-18T14:19:26;4;4;3
70243;PMS7003;57634;51.136;17.024;2023-02-18T14:22:33;2;2;2
70243;PMS7003;57634;51.136;17.024;2023-02-18T14:32:28;3;2;1
70243;PMS7003;57634;51.136;17.024;2023-02-18T14:52:14;8;6;4
70243;PMS7003;57634;51.136;17.024;2023-02-18T14:55:48;7;6;4
70243;PMS7003;57634;51.136;17.024;2023-02-18T14:58:55;5;5;3
70243;PMS7003;57634;51.136;17.024;2023-02-18T15:01:59;6;5;3
70243;PMS7003;57634;51.136;17.024;2023-02-18T15:08:14;5;5;3
70243;PMS7003;57634;51.136;17.024;2023-02-18T15:11:17;5;5;2
70243;PMS7003;57634;51.136;17.024;2023-02-18T15:14:29;8;7;4
70243;PMS7003;57634;51.136;17.024;2023-02-18T15:18:00;7;5;3
70243;PMS7003;57634;51.136;17.024;2023-02-18T15:21:03;6;5;3
70243;PMS7003;57634;51.136;17.024;2023-02-18T15:24:08;5;4;2
70243;PMS7003;57634;51.136;17.024;2023-02-18T15:30:29;2;2;1
70243;PMS7003;57634;51.136;17.024;2023-02-18T15:33:31;1;1;1
70243;PMS7003;57634;51.136;17.024;2023-02-18T15:36:32;2;2;1
70243;PMS7003;57634;51.136;17.024;2023-02-18T15:39:34;1;1;1
70243;PMS7003;57634;51.136;17.024;2023-02-18T15:43:06;3;2;1
70243;PMS7003;57634;51.136;17.024;2023-02-18T15:46:10;1;1;1
70243;PMS7003;57634;51.136;17.024;2023-02-18T15:49:14;6;2;1
70243;PMS7003;57634;51.136;17.024;2023-02-18T15:52:22;4;4;2
70243;PMS7003;57634;51.136;17.024;2023-02-18T15:55:30;1;1;0
70243;PMS7003;57634;51.136;17.024;2023-02-18T15:58:34;1;0;0
70243;PMS7003;57634;51.136;17.024;2023-02-18T16:01:36;0;0;0
70243;PMS7003;57634;51.136;17.024;2023-02-18T16:04:38;1;1;1
70243;PMS7003;57634;51.136;17.024;2023-02-18T16:11:21;0;0;0
70243;PMS7003;57634;51.136;17.024;2023-02-18T16:14:26;1;1;0
70243;PMS7003;57634;51.136;17.024;2023-02-18T16:17:34;0;0;0
70243;PMS7003;57634;51.136;17.024;2023-02-18T16:20:36;0;0;0
70243;PMS7003;57634;51.136;17.024;2023-02-18T16:23:42;0;0;0
70243;PMS7003;57634;51.136;17.024;2023-02-18T16:26:48;1;1;0
70243;PMS7003;57634;51.136;17.024;2023-02-18T16:29:52;0;0;0
70243;PMS7003;57634;51.136;17.024;2023-02-18T16:33:27;1;0;0
70243;PMS7003;57634;51.136;17.024;2023-02-18T16:36:28;2;1;1
70243;PMS7003;57634;51.136;17.024;2023-02-18T16:39:32;2;2;1
70243;PMS7003;57634;51.136;17.024;2023-02-18T16:42:34;2;2;0
70243;PMS7003;57634;51.136;17.024;2023-02-18T16:45:38;2;2;1
70243;PMS7003;57634;51.136;17.024;2023-02-18T16:48:43;2;2;1
70243;PMS7003;57634;51.136;17.024;2023-02-18T16:51:46;2;1;0
70243;PMS7003;57634;51.136;17.024;2023-02-18T16:54:48;4;3;2
70243;PMS7003;57634;51.136;17.024;2023-02-18T16:57:49;3;2;1
70243;PMS7003;57634;51.136;17.024;2023-02-18T17:00:50;0;0;0
70243;PMS7003;57634;51.136;17.024;2023-02-18T17:03:53;2;2;1
70243;PMS7003;57634;51.136;17.024;2023-02-18T17:06:55;1;1;0
70243;PMS7003;57634;51.136;17.024;2023-02-18T17:10:21;1;1;0
70243;PMS7003;57634;51.136;17.024;2023-02-18T17:13:26;1;1;1
70243;PMS7003;57634;51.136;17.024;2023-02-18T17:16:29;3;2;1
70243;PMS7003;57634;51.136;17.024;2023-02-18T17:19:31;1;0;0
70243;PMS7003;57634;51.136;17.024;2023-02-18T17:22:32;0;0;0
70243;PMS7003;57634;51.136;17.024;2023-02-18T17:25:35;0;0;0
70243;PMS7003;57634;51.136;17.024;2023-02-18T17:28:39;3;3;2
70243;PMS7003;57634;51.136;17.024;2023-02-18T17:31:44;2;2;1
70243;PMS7003;57634;51.136;17.024;2023-02-18T17:34:49;0;0;0
70243;PMS7003;57634;51.136;17.024;2023-02-18T17:37:50;0;0;0
70243;PMS7003;57634;51.136;17.024;2023-02-18T17:40:51;0;0;0
70243;PMS7003;57634;51.136;17.024;2023-02-18T17:44:19;0;0;0
70243;PMS7003;57634;51.136;17.024;2023-02-18T17:47:24;0;0;0
70243;PMS7003;57634;51.136;17.024;2023-02-18T17:50:25;0;0;0
70243;PMS7003;57634;51.136;17.024;2023-02-18T17:53:27;1;0;0
70243;PMS7003;57634;51.136;17.024;2023-02-18T17:56:29;0;0;0
70243;PMS7003;57634;51.136;17.024;2023-02-18T17:59:36;2;1;0
70243;PMS7003;57634;51.136;17.024;2023-02-18T18:02:37;0;0;0
70243;PMS7003;57634;51.136;17.024;2023-02-18T18:05:40;2;1;0
70243;PMS7003;57634;51.136;17.024;2023-02-18T18:08:42;3;2;1
70243;PMS7003;57634;51.136;17.024;2023-02-18T18:11:52;3;3;1
70243;PMS7003;57634;51.136;17.024;2023-02-18T18:18:40;1;1;0
70243;PMS7003;57634;51.136;17.024;2023-02-18T18:21:41;2;2;1
70243;PMS7003;57634;51.136;17.024;2023-02-18T18:24:42;0;0;0
70243;PMS7003;57634;51.136;17.024;2023-02-18T18:27:44;0;0;0
70243;PMS7003;57634;51.136;17.024;2023-02-18T18:30:48;0;0;0
70243;PMS7003;57634;51.136;17.024;2023-02-18T18:33:51;0;0;0
70243;PMS7003;57634;51.136;17.024;2023-02-18T18:36:52;1;1;0
70243;PMS7003;57634;51.136;17.024;2023-02-18T18:39:54;1;0;0
70243;PMS7003;57634;51.136;17.024;2023-02-18T18:42:56;1;0;0
70243;PMS7003;57634;51.136;17.024;2023-02-18T18:46:27;1;1;0
70243;PMS7003;57634;51.136;17.024;2023-02-18T18:49:29;2;2;1
70243;PMS7003;57634;51.136;17.024;2023-02-18T18:52:30;1;0;0
70243;PMS7003;57634;51.136;17.024;2023-02-18T18:55:32;2;2;1
70243;PMS7003;57634;51.136;17.024;2023-02-18T18:58:35;0;0;0
70243;PMS7003;57634;51.136;17.024;2023-02-18T19:01:40;0;0;0
70243;PMS7003;57634;51.136;17.024;2023-02-18T19:04:42;0;0;0
70243;PMS7003;57634;51.136;17.024;2023-02-18T19:07:46;0;0;0
70243;PMS7003;57634;51.136;17.024;2023-02-18T19:10:49;0;0;0
70243;PMS7003;57634;51.136;17.024;2023-02-18T19:13:54;0;0;0
70243;PMS7003;57634;51.136;17.024;2023-02-18T19:16:56;0;0;0
70243;PMS7003;57634;51.136;17.024;2023-02-18T19:20:25;0;0;0
70243;PMS7003;57634;51.136;17.024;2023-02-18T19:23:29;0;0;0
70243;PMS7003;57634;51.136;17.024;2023-02-18T19:26:40;0;0;0
70243;PMS7003;57634;51.136;17.024;2023-02-18T19:29:41;0;0;0
70243;PMS7003;57634;51.136;17.024;2023-02-18T19:32:43;0;0;0
70243;PMS7003;57634;51.136;17.024;2023-02-18T19:35:45;0;0;0
70243;PMS7003;57634;51.136;17.024;2023-02-18T19:38:52;0;0;0
70243;PMS7003;57634;51.136;17.024;2023-02-18T19:41:53;0;0;0
70243;PMS7003;57634;51.136;17.024;2023-02-18T19:44:55;0;0;0
70243;PMS7003;57634;51.136;17.024;2023-02-18T19:48:25;0;0;0
70243;PMS7003;57634;51.136;17.024;2023-02-18T19:51:34;0;0;0
70243;PMS7003;57634;51.136;17.024;2023-02-18T19:54:35;0;0;0
70243;PMS7003;57634;51.136;17.024;2023-02-18T19:57:37;0;0;0
70243;PMS7003;57634;51.136;17.024;2023-02-18T20:00:39;0;0;0
70243;PMS7003;57634;51.136;17.024;2023-02-18T20:03:40;0;0;0
70243;PMS7003;57634;51.136;17.024;2023-02-18T20:06:45;0;0;0
70243;PMS7003;57634;51.136;17.024;2023-02-18T20:09:46;0;0;0
70243;PMS7003;57634;51.136;17.024;2023-02-18T20:12:52;0;0;0
70243;PMS7003;57634;51.136;17.024;2023-02-18T20:15:53;0;0;0
70243;PMS7003;57634;51.136;17.024;2023-02-18T20:18:54;0;0;0
70243;PMS7003;57634;51.136;17.024;2023-02-18T20:22:22;0;0;0
70243;PMS7003;57634;51.136;17.024;2023-02-18T20:25:23;0;0;0
70243;PMS7003;57634;51.136;17.024;2023-02-18T20:28:28;0;0;0
70243;PMS7003;57634;51.136;17.024;2023-02-18T20:31:29;0;0;0
70243;PMS7003;57634;51.136;17.024;2023-02-18T20:34:30;0;0;0
70243;PMS7003;57634;51.136;17.024;2023-02-18T20:37:32;0;0;0
70243;PMS7003;57634;51.136;17.024;2023-02-18T20:40:33;0;0;0
70243;PMS7003;57634;51.136;17.024;2023-02-18T20:43:35;0;0;0
70243;PMS7003;57634;51.136;17.024;2023-02-18T20:46:37;0;0;0
70243;PMS7003;57634;51.136;17.024;2023-02-18T20:49:39;0;0;0
70243;PMS7003;57634;51.136;17.024;2023-02-18T20:52:41;0;0;0
70243;PMS7003;57634;51.136;17.024;2023-02-18T20:55:45;0;0;0
70243;PMS7003;57634;51.136;17.024;2023-02-18T20:59:15;0;0;0
70243;PMS7003;57634;51.136;17.024;2023-02-18T21:02:19;0;0;0
70243;PMS7003;57634;51.136;17.024;2023-02-18T21:05:20;0;0;0
70243;PMS7003;57634;51.136;17.024;2023-02-18T21:08:22;0;0;0
70243;PMS7003;57634;51.136;17.024;2023-02-18T21:11:25;0;0;0
70243;PMS7003;57634;51.136;17.024;2023-02-18T21:14:27;0;0;0
70243;PMS7003;57634;51.136;17.024;2023-02-18T21:17:28;0;0;0
70243;PMS7003;57634;51.136;17.024;2023-02-18T21:20:29;1;1;0
70243;PMS7003;57634;51.136;17.024;2023-02-18T21:23:31;0;0;0
70243;PMS7003;57634;51.136;17.024;2023-02-18T21:26:32;2;2;1
70243;PMS7003;57634;51.136;17.024;2023-02-18T21:29:34;1;1;1
70243;PMS7003;57634;51.136;17.024;2023-02-18T21:32:35;0;0;0
70243;PMS7003;57634;51.136;17.024;2023-02-18T21:35:37;0;0;0
70243;PMS7003;57634;51.136;17.024;2023-02-18T21:39:06;0;0;0
70243;PMS7003;57634;51.136;17.024;2023-02-18T21:42:09;0;0;0
70243;PMS7003;57634;51.136;17.024;2023-02-18T21:45:16;0;0;0
70243;PMS7003;57634;51.136;17.024;2023-02-18T21:48:18;1;1;0
70243;PMS7003;57634;51.136;17.024;2023-02-18T21:51:36;0;0;0
70243;PMS7003;57634;51.136;17.024;2023-02-18T21:54:51;1;0;0
70243;PMS7003;57634;51.136;17.024;2023-02-18T21:58:17;0;0;0
70243;PMS7003;57634;51.136;17.024;2023-02-18T22:01:19;0;0;0
70243;PMS7003;57634;51.136;17.024;2023-02-18T22:04:20;0;0;0
70243;PMS7003;57634;51.136;17.024;2023-02-18T22:07:23;0;0;0
70243;PMS7003;57634;51.136;17.024;2023-02-18T22:10:26;0;0;0
70243;PMS7003;57634;51.136;17.024;2023-02-18T22:13:27;0;0;0
70243;PMS7003;57634;51.136;17.024;2023-02-18T22:16:28;0;0;0
70243;PMS7003;57634;51.136;17.024;2023-02-18T22:19:29;0;0;0
70243;PMS7003;57634;51.136;17.024;2023-02-18T22:22:31;0;0;0
70243;PMS7003;57634;51.136;17.024;2023-02-18T22:25:33;0;0;0
70243;PMS7003;57634;51.136;17.024;2023-02-18T22:28:35;1;1;0
70243;PMS7003;57634;51.136;17.024;2023-02-18T22:31:37;1;1;0
70243;PMS7003;57634;51.136;17.024;2023-02-18T22:34:39;2;1;0
70243;PMS7003;57634;51.136;17.024;2023-02-18T22:38:08;2;2;1
70243;PMS7003;57634;51.136;17.024;2023-02-18T22:41:11;2;2;1
70243;PMS7003;57634;51.136;17.024;2023-02-18T22:44:14;1;1;0
70243;PMS7003;57634;51.136;17.024;2023-02-18T22:47:17;3;2;1
70243;PMS7003;57634;51.136;17.024;2023-02-18T22:50:19;1;1;1
70243;PMS7003;57634;51.136;17.024;2023-02-18T22:53:20;3;2;1
70243;PMS7003;57634;51.136;17.024;2023-02-18T22:56:21;2;1;1
70243;PMS7003;57634;51.136;17.024;2023-02-18T22:59:24;1;1;1
70243;PMS7003;57634;51.136;17.024;2023-02-18T23:02:25;4;2;1
70243;PMS7003;57634;51.136;17.024;2023-02-18T23:05:27;2;1;0
70243;PMS7003;57634;51.136;17.024;2023-02-18T23:08:28;3;3;2
70243;PMS7003;57634;51.136;17.024;2023-02-18T23:11:30;3;3;2